createdAt,value
2019-01-27T00:02:24.091Z,36.37
2019-01-27T00:04:53.958Z,37.00
2019-01-27T00:07:24.788Z,36.97
2019-01-27T00:09:54.658Z,37.70
2019-01-27T00:12:24.555Z,37.57
2019-01-27T00:14:54.525Z,36.17
2019-01-27T00:17:24.490Z,37.37
2019-01-27T00:19:54.376Z,36.93
2019-01-27T00:22:24.306Z,37.20
2019-01-27T00:24:54.250Z,37.70
2019-01-27T00:27:24.181Z,38.00
2019-01-27T00:29:55.050Z,37.93
2019-01-27T00:32:24.914Z,38.07
2019-01-27T00:34:54.778Z,38.63
2019-01-27T00:37:24.721Z,37.73
2019-01-27T00:39:54.583Z,40.10
2019-01-27T00:42:24.585Z,38.20
2019-01-27T00:44:54.567Z,39.63
2019-01-27T00:47:24.509Z,38.70
2019-01-27T00:49:54.369Z,38.00
2019-01-27T00:52:24.229Z,38.20
2019-01-27T00:54:54.185Z,37.80
2019-01-27T00:57:24.065Z,38.43
2019-01-27T00:59:54.010Z,38.07
2019-01-27T01:02:23.954Z,38.97
2019-01-27T01:04:54.171Z,39.07
2019-01-27T01:07:24.113Z,37.30
2019-01-27T01:09:54.066Z,37.67
2019-01-27T01:12:24.010Z,37.73
2019-01-27T01:14:54.029Z,38.27
2019-01-27T01:17:24.000Z,38.20
2019-01-27T01:19:54.031Z,39.23
2019-01-27T01:22:23.979Z,38.20
2019-01-27T01:24:54.051Z,37.40
2019-01-27T01:27:23.985Z,37.50
2019-01-27T01:29:53.858Z,39.00
2019-01-27T01:32:23.789Z,37.57
2019-01-27T01:34:53.759Z,37.90
2019-01-27T01:37:23.786Z,37.93
2019-01-27T01:39:53.649Z,38.07
2019-01-27T01:42:23.685Z,37.10
2019-01-27T01:44:53.615Z,37.73
2019-01-27T01:47:23.531Z,37.70
2019-01-27T01:49:53.529Z,38.00
2019-01-27T01:52:23.477Z,37.60
2019-01-27T01:54:53.385Z,37.57
2019-01-27T01:57:23.386Z,38.60
2019-01-27T01:59:53.331Z,36.80
2019-01-27T02:02:23.274Z,37.97
2019-01-27T02:04:53.221Z,37.90
2019-01-27T02:07:23.114Z,37.57
2019-01-27T02:09:52.993Z,37.50
2019-01-27T02:12:22.934Z,37.33
2019-01-27T02:14:52.875Z,37.23
2019-01-27T02:17:24.560Z,36.80
2019-01-27T02:19:54.521Z,37.93
2019-01-27T02:22:24.461Z,38.00
2019-01-27T02:24:54.401Z,37.07
2019-01-27T02:27:24.333Z,37.17
2019-01-27T02:29:54.233Z,38.30
2019-01-27T02:32:24.200Z,38.33
2019-01-27T02:34:54.200Z,37.87
2019-01-27T02:37:24.091Z,37.53
2019-01-27T02:39:54.115Z,37.27
2019-01-27T02:42:24.049Z,37.87
2019-01-27T02:44:53.957Z,38.03
2019-01-27T02:47:23.823Z,37.47
2019-01-27T02:49:53.702Z,37.67
2019-01-27T02:52:23.636Z,37.63
2019-01-27T02:54:53.665Z,37.67
2019-01-27T02:57:23.601Z,38.03
2019-01-27T02:59:53.496Z,38.07
2019-01-27T03:02:23.440Z,38.70
2019-01-27T03:04:55.169Z,37.80
2019-01-27T03:07:33.508Z,38.70
2019-01-27T03:10:03.623Z,37.53
2019-01-27T03:12:33.555Z,38.37
2019-01-27T03:15:05.060Z,37.10
2019-01-27T03:17:34.939Z,37.37
2019-01-27T03:20:07.519Z,38.23
2019-01-27T03:22:37.467Z,37.37
2019-01-27T03:25:10.250Z,37.67
2019-01-27T03:27:40.135Z,37.00
2019-01-27T03:30:15.150Z,37.70
2019-01-27T03:32:45.115Z,37.33
2019-01-27T03:35:15.026Z,36.37
2019-01-27T03:37:44.980Z,36.43
2019-01-27T03:40:14.917Z,37.63
2019-01-27T03:42:44.796Z,38.20
2019-01-27T03:45:15.031Z,35.90
2019-01-27T03:47:44.960Z,36.67
2019-01-27T03:50:15.557Z,36.83
2019-01-27T03:52:45.579Z,36.50
2019-01-27T03:55:16.704Z,36.10
2019-01-27T03:57:46.557Z,36.43
2019-01-27T04:00:18.746Z,35.83
2019-01-27T04:02:48.603Z,35.90
2019-01-27T04:05:18.567Z,35.00
2019-01-27T04:07:48.583Z,36.40
2019-01-27T04:10:19.958Z,38.00
2019-01-27T04:12:50.954Z,35.43
2019-01-27T04:15:20.968Z,36.27
2019-01-27T04:17:50.882Z,35.90
2019-01-27T04:20:20.995Z,36.20
2019-01-27T04:22:51.016Z,34.20
2019-01-27T04:25:20.962Z,34.83
2019-01-27T04:27:50.894Z,35.23
2019-01-27T04:30:29.322Z,34.87
2019-01-27T04:32:59.330Z,36.27
2019-01-27T04:35:29.189Z,35.93
2019-01-27T04:37:59.074Z,35.20
2019-01-27T04:40:29.028Z,35.20
2019-01-27T04:42:58.922Z,34.63
2019-01-27T04:45:34.492Z,34.43
2019-01-27T04:48:04.707Z,35.10
2019-01-27T04:50:34.723Z,34.17
2019-01-27T04:53:05.058Z,33.97
2019-01-27T04:55:34.994Z,35.00
2019-01-27T04:58:05.333Z,35.20
2019-01-27T05:00:35.263Z,34.67
2019-01-27T05:03:39.317Z,34.40
2019-01-27T05:06:09.334Z,33.87
2019-01-27T05:08:39.334Z,34.43
2019-01-27T05:11:09.544Z,34.60
2019-01-27T05:13:39.481Z,33.83
2019-01-27T05:16:09.468Z,33.73
2019-01-27T05:18:39.407Z,34.50
2019-01-27T05:21:09.388Z,34.43
2019-01-27T05:23:39.346Z,33.63
2019-01-27T05:26:09.288Z,33.37
2019-01-27T05:28:39.377Z,33.27
2019-01-27T05:31:09.312Z,34.53
2019-01-27T05:33:39.255Z,34.90
2019-01-27T05:36:09.257Z,33.97
2019-01-27T05:38:39.183Z,33.87
2019-01-27T05:41:09.138Z,33.77
2019-01-27T05:43:39.071Z,34.00
2019-01-27T05:46:08.934Z,33.50
2019-01-27T05:48:38.795Z,34.27
2019-01-27T05:51:08.641Z,33.47
2019-01-27T05:53:38.525Z,32.83
2019-01-27T05:56:08.401Z,33.27
2019-01-27T05:58:38.346Z,33.03
2019-01-27T06:01:08.305Z,32.77
2019-01-27T06:03:38.230Z,33.50
2019-01-27T06:06:08.202Z,33.47
2019-01-27T06:08:38.134Z,33.30
2019-01-27T06:11:08.086Z,32.53
2019-01-27T06:13:38.017Z,33.30
2019-01-27T06:16:07.953Z,33.50
2019-01-27T06:18:37.935Z,32.03
2019-01-27T06:21:07.800Z,32.87
2019-01-27T06:23:37.765Z,33.47
2019-01-27T06:26:07.716Z,33.03
2019-01-27T06:28:37.573Z,33.17
2019-01-27T06:31:07.482Z,32.47
2019-01-27T06:33:44.920Z,32.17
2019-01-27T06:36:14.795Z,32.93
2019-01-27T06:38:44.641Z,33.20
2019-01-27T06:41:14.569Z,32.83
2019-01-27T06:43:44.516Z,33.73
2019-01-27T06:46:14.462Z,32.30
2019-01-27T06:48:44.462Z,32.17
2019-01-27T06:51:14.381Z,33.00
2019-01-27T06:53:44.318Z,32.97
2019-01-27T06:56:14.190Z,32.67
2019-01-27T06:59:01.525Z,33.93
2019-01-27T07:01:37.177Z,34.70
2019-01-27T07:04:20.754Z,33.30
2019-01-27T07:07:08.276Z,33.93
2019-01-27T07:09:53.023Z,34.73
2019-01-27T07:12:53.954Z,34.00
2019-01-27T07:15:42.503Z,33.60
2019-01-27T07:18:24.988Z,33.87
2019-01-27T07:21:12.507Z,34.37
2019-01-27T07:24:04.157Z,34.50
2019-01-27T07:26:51.454Z,32.87
2019-01-27T07:29:37.728Z,33.97
2019-01-27T07:32:34.422Z,35.60
2019-01-27T07:35:22.533Z,34.77
2019-01-27T07:37:57.361Z,35.73
2019-01-27T07:40:34.730Z,36.20
2019-01-27T07:43:18.425Z,34.90
2019-01-27T07:46:10.361Z,35.80
2019-01-27T07:48:50.418Z,35.60
2019-01-27T07:51:33.706Z,36.03
2019-01-27T07:54:29.269Z,36.33
2019-01-27T07:57:18.912Z,35.77
2019-01-27T08:00:05.198Z,36.13
2019-01-27T08:02:58.821Z,36.57
2019-01-27T08:05:43.229Z,36.37
2019-01-27T08:08:47.270Z,35.53
2019-01-27T08:11:42.262Z,37.23
2019-01-27T08:14:23.018Z,36.17
2019-01-27T08:17:14.946Z,35.90
2019-01-27T08:20:06.606Z,38.07
2019-01-27T08:22:44.246Z,35.87
2019-01-27T08:25:24.558Z,37.77
2019-01-27T08:28:12.061Z,37.47
2019-01-27T08:31:00.042Z,38.33
2019-01-27T08:33:39.486Z,35.80
2019-01-27T08:36:43.586Z,36.83
2019-01-27T08:39:50.627Z,37.23
2019-01-27T08:42:49.240Z,37.87
2019-01-27T08:45:35.631Z,37.80
2019-01-27T08:48:05.570Z,37.70
2019-01-27T08:50:35.518Z,37.73
2019-01-27T08:53:05.520Z,37.77
2019-01-27T08:55:35.459Z,37.67
2019-01-27T08:58:05.261Z,37.13
2019-01-27T09:00:39.702Z,36.40
2019-01-27T09:03:17.643Z,36.67
2019-01-27T09:06:09.674Z,38.07
2019-01-27T09:09:07.545Z,37.23
2019-01-27T09:11:51.777Z,37.83
2019-01-27T09:14:39.103Z,37.93
2019-01-27T09:17:26.773Z,36.53
2019-01-27T09:20:14.352Z,38.10
2019-01-27T09:23:10.312Z,37.70
2019-01-27T09:25:53.162Z,36.20
2019-01-27T09:28:27.969Z,38.33
2019-01-27T09:31:10.795Z,36.60
2019-01-27T09:34:13.358Z,37.03
2019-01-27T09:37:00.502Z,37.00
2019-01-27T09:40:04.558Z,36.43
2019-01-27T09:42:49.024Z,37.57
2019-01-27T09:45:34.722Z,38.53
2019-01-27T09:48:23.568Z,38.90
2019-01-27T09:51:11.578Z,39.60
2019-01-27T09:53:54.483Z,38.67
2019-01-27T09:56:46.185Z,38.90
2019-01-27T09:59:26.485Z,38.53
2019-01-27T10:02:21.731Z,39.43
2019-01-27T10:05:02.842Z,39.03
2019-01-27T10:07:40.886Z,38.87
2019-01-27T10:10:39.826Z,39.60
2019-01-27T10:13:31.952Z,37.27
2019-01-27T10:16:23.726Z,38.23
2019-01-27T10:19:27.423Z,38.40
2019-01-27T10:22:03.565Z,37.83
2019-01-27T10:24:51.089Z,37.70
2019-01-27T10:27:38.629Z,38.80
2019-01-27T10:30:34.009Z,38.63
2019-01-27T10:33:25.692Z,37.57
2019-01-27T10:36:04.248Z,37.77
2019-01-27T10:38:51.571Z,36.23
2019-01-27T10:41:43.157Z,36.97
2019-01-27T10:44:19.967Z,35.83
2019-01-27T10:47:08.178Z,35.93
2019-01-27T10:49:49.417Z,36.07
2019-01-27T10:52:41.310Z,36.10
2019-01-27T10:55:19.771Z,36.33
2019-01-27T10:58:04.402Z,37.43
2019-01-27T11:00:57.317Z,35.67
2019-01-27T11:03:36.058Z,36.00
2019-01-27T11:06:24.974Z,35.93
2019-01-27T11:09:18.982Z,35.87
2019-01-27T11:12:06.957Z,41.30
2019-01-27T11:15:14.201Z,49.87
2019-01-27T11:18:21.512Z,52.67
2019-01-27T11:21:08.915Z,48.67
2019-01-27T11:24:00.621Z,48.63
2019-01-27T11:26:47.458Z,49.23
2019-01-27T11:29:34.518Z,48.13
2019-01-27T11:32:26.318Z,46.20
2019-01-27T11:35:11.237Z,45.17
2019-01-27T11:37:58.510Z,44.97
2019-01-27T11:40:47.473Z,43.83
2019-01-27T11:43:36.454Z,44.27
2019-01-27T11:46:15.920Z,43.53
2019-01-27T11:49:04.874Z,43.07
2019-01-27T11:51:39.346Z,43.53
2019-01-27T11:54:09.470Z,43.73
2019-01-27T11:56:39.405Z,43.03
2019-01-27T11:59:09.341Z,42.27
2019-01-27T12:01:39.344Z,42.40
2019-01-27T12:04:09.309Z,43.10
2019-01-27T12:06:39.253Z,42.43
2019-01-27T12:09:09.710Z,42.47
2019-01-27T12:11:39.739Z,42.33
2019-01-27T12:14:09.801Z,42.20
2019-01-27T12:16:40.625Z,42.30
2019-01-27T12:19:10.598Z,41.80
2019-01-27T12:21:40.466Z,41.57
2019-01-27T12:24:11.961Z,42.63
2019-01-27T12:26:41.987Z,41.43
2019-01-27T12:29:11.854Z,40.63
2019-01-27T12:31:41.782Z,41.00
2019-01-27T12:34:11.743Z,42.03
2019-01-27T12:36:41.671Z,42.83
2019-01-27T12:39:11.622Z,41.10
2019-01-27T12:41:41.525Z,41.63
2019-01-27T12:44:11.438Z,40.57
2019-01-27T12:46:41.334Z,44.37
2019-01-27T12:49:11.305Z,42.30
2019-01-27T12:51:41.283Z,42.67
2019-01-27T12:54:11.229Z,43.87
2019-01-27T12:56:41.167Z,43.13
2019-01-27T12:59:11.040Z,41.97
2019-01-27T13:01:41.088Z,42.33
2019-01-27T13:04:11.071Z,41.83
2019-01-27T13:06:41.223Z,41.20
2019-01-27T13:09:11.214Z,39.97
2019-01-27T13:11:41.089Z,39.87
2019-01-27T13:14:11.043Z,39.73
2019-01-27T13:16:41.058Z,39.50
2019-01-27T13:19:11.986Z,38.60
2019-01-27T13:21:42.045Z,38.27
2019-01-27T13:24:11.937Z,37.83
2019-01-27T13:26:43.623Z,37.27
2019-01-27T13:29:13.476Z,36.63
2019-01-27T13:31:43.341Z,37.43
2019-01-27T13:34:13.379Z,37.27
2019-01-27T13:36:44.462Z,36.80
2019-01-27T13:39:14.399Z,37.40
2019-01-27T13:41:44.374Z,34.77
2019-01-27T13:44:14.355Z,37.38
2019-01-27T13:46:44.217Z,35.17
2019-01-27T13:49:14.112Z,35.20
2019-01-27T13:51:44.075Z,34.87
2019-01-27T13:54:14.073Z,35.57
2019-01-27T13:56:44.018Z,34.63
2019-01-27T13:59:18.214Z,34.27
2019-01-27T14:01:49.476Z,33.30
2019-01-27T14:04:20.461Z,34.10
2019-01-27T14:06:50.392Z,33.47
2019-01-27T14:09:20.357Z,33.63
2019-01-27T14:11:50.843Z,31.80
2019-01-27T14:14:20.925Z,33.13
2019-01-27T14:16:50.922Z,32.00
2019-01-27T14:19:20.896Z,33.50
2019-01-27T14:21:50.948Z,32.10
2019-01-27T14:24:21.085Z,32.17
2019-01-27T14:26:52.056Z,31.40
2019-01-27T14:29:21.976Z,30.67
2019-01-27T14:31:51.925Z,30.23
2019-01-27T14:34:22.781Z,31.60
2019-01-27T14:36:52.717Z,30.30
2019-01-27T14:39:22.686Z,29.40
2019-01-27T14:41:52.594Z,28.57
2019-01-27T14:44:22.589Z,29.43
2019-01-27T14:46:52.582Z,29.70
2019-01-27T14:49:22.537Z,29.37
2019-01-27T14:51:52.489Z,28.20
2019-01-27T14:54:22.430Z,28.57
2019-01-27T14:56:52.301Z,28.13
2019-01-27T14:59:22.275Z,28.10
2019-01-27T15:01:52.198Z,29.27
2019-01-27T15:04:22.094Z,28.47
2019-01-27T15:06:52.061Z,28.10
2019-01-27T15:09:22.033Z,27.97
2019-01-27T15:11:51.993Z,27.47
2019-01-27T15:14:22.054Z,27.13
2019-01-27T15:16:52.020Z,27.50
2019-01-27T15:19:22.188Z,26.87
2019-01-27T15:21:52.169Z,27.00
2019-01-27T15:24:22.217Z,27.10
2019-01-27T15:26:52.380Z,26.70
2019-01-27T15:29:23.709Z,25.97
2019-01-27T15:31:53.896Z,27.10
2019-01-27T15:34:24.207Z,26.83
2019-01-27T15:36:54.436Z,26.37
2019-01-27T15:39:24.638Z,25.33
2019-01-27T15:41:54.906Z,26.37
2019-01-27T15:44:25.133Z,25.77
2019-01-27T15:46:55.318Z,25.67
2019-01-27T15:49:25.550Z,25.43
2019-01-27T15:51:55.711Z,24.80
2019-01-27T15:54:25.852Z,26.03
2019-01-27T15:56:55.809Z,25.60
2019-01-27T15:59:25.825Z,24.17
2019-01-27T16:01:55.893Z,26.50
2019-01-27T16:04:25.966Z,25.47
2019-01-27T16:06:55.894Z,25.43
2019-01-27T16:09:25.906Z,24.97
2019-01-27T16:11:55.852Z,25.10
2019-01-27T16:14:25.820Z,24.47
2019-01-27T16:16:55.781Z,24.13
2019-01-27T16:19:25.748Z,24.20
2019-01-27T16:21:55.708Z,24.73
2019-01-27T16:24:28.975Z,23.13
2019-01-27T16:26:58.958Z,23.93
2019-01-27T16:29:43.268Z,23.17
2019-01-27T16:32:19.643Z,23.33
2019-01-27T16:34:57.283Z,23.23
2019-01-27T16:37:27.309Z,23.37
2019-01-27T16:39:57.291Z,22.50
2019-01-27T16:42:27.239Z,22.90
2019-01-27T16:44:57.194Z,22.37
2019-01-27T16:47:27.165Z,22.83
2019-01-27T16:49:57.152Z,21.70
2019-01-27T16:52:27.078Z,21.63
2019-01-27T16:54:56.956Z,22.07
2019-01-27T16:57:27.020Z,21.83
2019-01-27T16:59:56.889Z,21.10
2019-01-27T17:02:26.828Z,22.03
2019-01-27T17:04:56.821Z,21.97
2019-01-27T17:07:26.685Z,21.47
2019-01-27T17:09:56.578Z,21.47
2019-01-27T17:12:26.521Z,21.70
2019-01-27T17:14:56.460Z,21.50
2019-01-27T17:17:26.406Z,22.00
2019-01-27T17:20:02.485Z,21.63
2019-01-27T17:22:28.019Z,21.07
2019-01-27T17:24:57.960Z,25.33
2019-01-27T17:27:27.911Z,38.77
2019-01-27T17:29:58.780Z,43.33
2019-01-27T17:32:28.760Z,52.07
2019-01-27T17:34:58.649Z,43.10
2019-01-27T17:37:28.607Z,44.03
2019-01-27T17:39:58.476Z,40.93
2019-01-27T17:42:28.430Z,41.90
2019-01-27T17:44:58.345Z,41.90
2019-01-27T17:47:28.356Z,40.03
2019-01-27T17:49:58.419Z,39.57
2019-01-27T17:52:28.435Z,37.13
2019-01-27T17:54:58.472Z,36.90
2019-01-27T17:57:47.183Z,35.83
2019-01-27T18:00:54.487Z,35.53
2019-01-27T18:03:55.689Z,35.63
2019-01-27T18:06:30.696Z,34.07
2019-01-27T18:09:25.177Z,34.13
2019-01-27T18:12:00.882Z,33.87
2019-01-27T18:14:34.199Z,33.27
2019-01-27T18:17:04.237Z,31.33
2019-01-27T18:19:34.090Z,31.27
2019-01-27T18:22:04.103Z,31.80
2019-01-27T18:24:34.035Z,31.43
2019-01-27T18:27:04.005Z,30.87
2019-01-27T18:29:33.937Z,29.90
2019-01-27T18:32:03.874Z,29.97
2019-01-27T18:34:33.964Z,28.97
2019-01-27T18:37:05.588Z,27.93
2019-01-27T18:39:35.670Z,28.57
2019-01-27T18:42:05.880Z,28.33
2019-01-27T18:44:35.772Z,27.10
2019-01-27T18:47:05.834Z,27.87
2019-01-27T18:49:35.723Z,28.10
2019-01-27T18:52:05.963Z,26.07
2019-01-27T18:54:58.713Z,26.40
2019-01-27T18:57:37.686Z,25.87
2019-01-27T19:00:29.322Z,26.30
2019-01-27T19:03:12.994Z,25.67
2019-01-27T19:05:58.038Z,25.10
2019-01-27T19:08:39.441Z,25.27
2019-01-27T19:11:32.330Z,24.63
2019-01-27T19:14:33.134Z,24.07
2019-01-27T19:17:27.943Z,24.23
2019-01-27T19:20:20.147Z,23.67
2019-01-27T19:23:02.065Z,23.67
2019-01-27T19:25:46.431Z,23.23
2019-01-27T19:28:25.729Z,23.10
2019-01-27T19:31:18.145Z,22.73
2019-01-27T19:34:08.974Z,22.73
2019-01-27T19:36:44.992Z,23.13
2019-01-27T19:39:32.440Z,21.57
2019-01-27T19:42:07.480Z,22.60
2019-01-27T19:44:53.032Z,22.23
2019-01-27T19:47:43.923Z,22.83
2019-01-27T19:50:38.530Z,22.47
2019-01-27T19:53:33.256Z,21.77
2019-01-27T19:56:22.985Z,21.77
2019-01-27T19:58:59.634Z,22.23
2019-01-27T20:01:46.610Z,22.07
2019-01-27T20:04:44.832Z,21.30
2019-01-27T20:07:33.762Z,21.30
2019-01-27T20:10:18.350Z,20.77
2019-01-27T20:13:08.287Z,20.10
2019-01-27T20:15:50.150Z,20.87
2019-01-27T20:18:48.082Z,20.30
2019-01-27T20:21:40.934Z,20.77
2019-01-27T20:24:19.862Z,20.67
2019-01-27T20:27:26.952Z,19.80
2019-01-27T20:30:21.953Z,20.50
2019-01-27T20:33:09.300Z,19.60
2019-01-27T20:35:59.547Z,19.87
2019-01-27T20:38:45.727Z,19.57
2019-01-27T20:41:32.389Z,18.77
2019-01-27T20:44:30.278Z,18.80
2019-01-27T20:47:15.473Z,19.30
2019-01-27T20:50:02.943Z,18.60
2019-01-27T20:52:47.670Z,20.17
2019-01-27T20:55:48.773Z,18.40
2019-01-27T20:58:29.219Z,19.07
2019-01-27T21:01:13.750Z,19.33
2019-01-27T21:04:07.969Z,18.60
2019-01-27T21:06:51.562Z,18.00
2019-01-27T21:09:49.667Z,18.17
2019-01-27T21:12:41.389Z,18.80
2019-01-27T21:15:29.899Z,17.60
2019-01-27T21:18:33.481Z,17.23
2019-01-27T21:21:03.529Z,17.10
2019-01-27T21:23:33.612Z,18.63
2019-01-27T21:26:03.747Z,18.33
2019-01-27T21:28:33.717Z,17.47
2019-01-27T21:31:03.856Z,18.47
2019-01-27T21:33:33.838Z,18.37
2019-01-27T21:36:03.953Z,18.27
2019-01-27T21:38:34.987Z,17.23
2019-01-27T21:41:04.958Z,17.60
2019-01-27T21:43:34.909Z,17.60
2019-01-27T21:46:04.862Z,17.47
2019-01-27T21:48:34.850Z,17.93
2019-01-27T21:51:04.875Z,17.40
2019-01-27T21:53:34.766Z,17.07
2019-01-27T21:56:04.646Z,17.40
2019-01-27T21:58:34.577Z,17.70
2019-01-27T22:01:04.878Z,17.30
2019-01-27T22:03:35.783Z,17.57
2019-01-27T22:06:05.677Z,18.03
2019-01-27T22:08:35.602Z,17.60
2019-01-27T22:11:05.525Z,17.60
2019-01-27T22:13:35.541Z,16.80
2019-01-27T22:16:05.398Z,17.03
2019-01-27T22:18:35.322Z,16.67
2019-01-27T22:21:05.279Z,16.80
2019-01-27T22:23:35.225Z,16.93
2019-01-27T22:26:05.170Z,16.40
2019-01-27T22:28:35.053Z,17.60
2019-01-27T22:31:04.907Z,16.40
2019-01-27T22:33:34.783Z,16.67
2019-01-27T22:36:04.779Z,16.93
2019-01-27T22:38:34.746Z,17.13
2019-01-27T22:41:04.673Z,16.37
2019-01-27T22:43:34.637Z,16.20
2019-01-27T22:46:04.627Z,16.87
2019-01-27T22:48:34.554Z,16.77
2019-01-27T22:51:04.501Z,16.57
2019-01-27T22:53:34.374Z,16.37
2019-01-27T22:56:04.305Z,16.87
2019-01-27T22:58:34.229Z,16.20
2019-01-27T23:01:10.906Z,16.63
2019-01-27T23:03:45.728Z,16.33
2019-01-27T23:06:17.318Z,15.83
2019-01-27T23:08:47.322Z,16.27
2019-01-27T23:11:17.186Z,15.40
2019-01-27T23:13:47.046Z,16.00
2019-01-27T23:16:16.902Z,15.90
2019-01-27T23:18:46.762Z,15.97
2019-01-27T23:21:16.645Z,15.23
2019-01-27T23:23:46.578Z,16.13
2019-01-27T23:26:16.460Z,15.13
2019-01-27T23:28:46.413Z,15.90
2019-01-27T23:31:16.425Z,15.67
2019-01-27T23:33:46.389Z,15.57
2019-01-27T23:36:16.258Z,14.93
2019-01-27T23:38:46.123Z,15.43
2019-01-27T23:41:15.998Z,15.50
2019-01-27T23:43:45.928Z,15.53
2019-01-27T23:46:15.783Z,15.53
2019-01-27T23:48:46.621Z,15.20
2019-01-27T23:51:16.501Z,15.53
2019-01-27T23:53:46.284Z,15.53
2019-01-27T23:56:16.139Z,14.93
2019-01-27T23:58:46.065Z,14.70
